S — 9HA4589 — position and weather

sailwx.info

Track history (hours):
 
Tides and Currents Weather Stations Pressure Air Temp Water Temp Dewpoint Dewpoint Depression Visibility Wind Speed Wind Dir Waves Ship Positions

S

Last reported at 2017-Oct-04 20:23 UTC. Time now 2018-Feb-21 07:19 UTC.
Position N 38°47' E 008°43'.
Warning: this ship's position is months out of date.

Length 53 m; draft 2.1 m.

Type: Pleasure craft. MMSI: 248283000.

Date/timePositionNaut miles runAvg speedWind from/ knotsBaromVisibWave heightAir tempDewpointWater temp
2017-Oct-04 20:23N 38°47' E 008°43'21417.7
2017-Oct-04 08:17N 38°27' E 013°16'517.6
2017-Oct-04 08:00N 38°27' E 013°22'917.6
2017-Oct-04 07:29N 38°26' E 013°33'817.5
2017-Oct-04 07:00N 38°25' E 013°44'917.3
2017-Oct-04 06:30N 38°24' E 013°55'5217.5
2017-Oct-04 03:31N 38°20' E 015°02'516.6
2017-Oct-04 03:11N 38°21' E 015°08'518.0
2017-Oct-04 02:54N 38°21' E 015°15'717.7
2017-Oct-04 02:29N 38°21' E 015°24'817.4
2017-Oct-04 02:00N 38°21' E 015°35'713.5
2017-Oct-04 01:30N 38°15' E 015°41'713.7
2017-Oct-04 01:01N 38°09' E 015°36'816.8
2017-Oct-04 00:30N 38°01' E 015°36'917.1
2017-Oct-04 00:00N 37°54' E 015°42'916.8
2017-Oct-03 23:29N 37°53' E 015°53'3417.2
2017-Oct-03 21:31N 38°09' E 016°31'  
2017-Oct-01 13:02N 37°55' E 023°00'0 6.3
2017-Oct-01 13:00N 37°55' E 023°01'3 6.5
2017-Oct-01 12:30N 37°54' E 023°04'714.4
2017-Oct-01 12:00N 37°52' E 023°13'714.7
2017-Oct-01 11:30N 37°51' E 023°22'714.6
2017-Oct-01 11:00N 37°50' E 023°32'713.1
2017-Oct-01 10:30N 37°49' E 023°40'714.2
2017-Oct-01 10:00N 37°43' E 023°44'5012.0
2017-Oct-01 05:51N 37°28' E 024°44'1811.2
2017-Oct-01 04:14N 37°26' E 025°07'313.2
2017-Oct-01 04:01N 37°24' E 025°09'612.5
2017-Oct-01 03:30N 37°22' E 025°17'4 8.2
2017-Oct-01 03:01N 37°25' E 025°20'0 0.0
2017-Sep-30 01:59N 37°25' E 025°20'0 0.0
2017-Sep-30 01:26N 37°25' E 025°20'0 0.0
2017-Sep-30 00:56N 37°25' E 025°20'0 0.0
2017-Sep-30 00:29N 37°25' E 025°20'0 0.1
2017-Sep-29 23:59N 37°25' E 025°20'0 0.0
2017-Sep-29 23:29N 37°25' E 025°20'0 0.0
2017-Sep-29 22:59N 37°25' E 025°20'0 0.0
2017-Sep-29 22:29N 37°25' E 025°20'0 0.0
2017-Sep-29 21:59N 37°25' E 025°20'0 0.0
2017-Sep-29 21:29N 37°25' E 025°20'0 0.0
2017-Sep-29 20:59N 37°25' E 025°20'0 0.0
2017-Sep-29 20:29N 37°25' E 025°20'0 0.0
2017-Sep-29 19:53N 37°25' E 025°20'0 0.0
2017-Sep-29 19:29N 37°25' E 025°20'0 0.0
2017-Sep-29 18:59N 37°25' E 025°20'0 0.0
2017-Sep-29 18:29N 37°25' E 025°20'0 0.0
2017-Sep-29 17:59N 37°25' E 025°20'0 0.0
2017-Sep-29 17:29N 37°25' E 025°20'0 0.0
2017-Sep-29 16:59N 37°25' E 025°20'0 0.0
2017-Sep-29 16:29N 37°25' E 025°20'0 0.0
2017-Sep-29 15:59N 37°25' E 025°20'0 0.0
2017-Sep-29 15:29N 37°25' E 025°20'0 0.2
2017-Sep-29 14:56N 37°25' E 025°20'0 0.0
2017-Sep-29 14:29N 37°25' E 025°20'0 0.1
2017-Sep-29 13:59N 37°25' E 025°20'0 0.0
2017-Sep-29 13:29N 37°25' E 025°20'0 0.1
2017-Sep-29 12:59N 37°25' E 025°20'0 0.1
2017-Sep-29 12:29N 37°25' E 025°20'0 0.0
2017-Sep-29 11:59N 37°25' E 025°20'0 0.1
2017-Sep-29 11:29N 37°25' E 025°20'1 2.8
2017-Sep-29 11:00N 37°24' E 025°22'3 5.2
2017-Sep-29 10:30N 37°26' E 025°25'1 2.7
2017-Sep-29 10:00N 37°24' E 025°24'510.9
2017-Sep-29 09:30N 37°26' E 025°17'2 4.0
2017-Sep-29 09:00N 37°27' E 025°20'0 0.1
2017-Sep-29 08:30N 37°27' E 025°20'0 0.0
2017-Sep-29 08:01N 37°27' E 025°20'0 0.0
2017-Sep-29 07:30N 37°27' E 025°20'0 0.0
2017-Sep-29 06:57N 37°27' E 025°20'0 0.0
2017-Sep-29 06:30N 37°27' E 025°20'0 0.0
2017-Sep-29 06:00N 37°27' E 025°20'0 0.0
2017-Sep-29 05:30N 37°27' E 025°20'0 0.0
2017-Sep-29 05:01N 37°27' E 025°20'0 0.0
2017-Sep-29 04:30N 37°27' E 025°20'0 0.0
2017-Sep-29 04:00N 37°27' E 025°20'0 0.0
2017-Sep-29 03:30N 37°27' E 025°20'0 0.0
2017-Sep-29 03:00N 37°27' E 025°20'0 0.0
2017-Sep-29 01:42N 37°27' E 025°20'0 0.0
2017-Sep-29 00:09N 37°27' E 025°20'0 0.0
2017-Sep-28 23:09N 37°27' E 025°20'0 0.0
2017-Sep-28 22:54N 37°27' E 025°20'0 0.0
2017-Sep-28 22:30N 37°27' E 025°20'0 0.0
2017-Sep-28 22:00N 37°27' E 025°20'0 0.0
2017-Sep-28 21:30N 37°27' E 025°20'0 0.0
2017-Sep-28 21:00N 37°27' E 025°20'0 0.0
2017-Sep-28 20:30N 37°27' E 025°20'0 0.0
2017-Sep-28 20:00N 37°27' E 025°20'0 0.0
2017-Sep-28 19:30N 37°27' E 025°20'0 0.0
2017-Sep-28 19:00N 37°27' E 025°20'0 0.0
2017-Sep-28 18:27N 37°27' E 025°20'0 0.0
2017-Sep-28 18:00N 37°27' E 025°20'0 0.0
2017-Sep-28 17:30N 37°27' E 025°20'0 0.0
2017-Sep-28 17:00N 37°27' E 025°20'0 0.0
2017-Sep-28 16:30N 37°27' E 025°20'0 0.0
2017-Sep-28 16:00N 37°27' E 025°20'0 0.0
2017-Sep-28 15:30N 37°27' E 025°20'0 0.0
2017-Sep-28 15:00N 37°27' E 025°20'0 0.0
2017-Sep-28 14:27N 37°27' E 025°20'0 0.0
2017-Sep-28 13:57N 37°27' E 025°20'0 0.0
2017-Sep-28 13:30N 37°27' E 025°20'0 0.0
2017-Sep-28 13:00N 37°27' E 025°20'0 0.0
2017-Sep-28 12:30N 37°27' E 025°20'0 0.0
2017-Sep-28 12:00N 37°27' E 025°20'0 0.0
2017-Sep-28 11:30N 37°27' E 025°20'0 0.0
2017-Sep-28 11:00N 37°27' E 025°20'0 0.0
2017-Sep-28 10:30N 37°27' E 025°20'0 0.0
2017-Sep-28 10:00N 37°27' E 025°20'0 0.0
2017-Sep-28 09:30N 37°27' E 025°20'0 0.0
2017-Sep-28 08:57N 37°27' E 025°20'0 0.0
2017-Sep-28 08:30N 37°27' E 025°20'0 0.0
2017-Sep-28 08:00N 37°27' E 025°20'0 0.0
2017-Sep-28 07:30N 37°27' E 025°20'0 0.0
2017-Sep-28 07:00N 37°27' E 025°20'0 0.0
2017-Sep-28 06:30N 37°27' E 025°20'0 0.0
2017-Sep-28 06:00N 37°27' E 025°20'0 0.0
2017-Sep-28 05:30N 37°27' E 025°20'0 0.0
2017-Sep-28 05:00N 37°27' E 025°20'0 0.0
2017-Sep-28 04:30N 37°27' E 025°20'0 0.0
2017-Sep-28 03:57N 37°27' E 025°20'0 0.0
2017-Sep-28 03:30N 37°27' E 025°20'0 0.0
2017-Sep-28 03:00N 37°27' E 025°20'0 0.0
2017-Sep-28 02:27N 37°27' E 025°20'0 0.0
2017-Sep-28 01:57N 37°27' E 025°20'0 0.0
2017-Sep-28 01:30N 37°27' E 025°20'0 0.0
2017-Sep-28 01:00N 37°27' E 025°20'0 0.0
2017-Sep-28 00:30N 37°27' E 025°20'0 0.0
2017-Sep-28 00:00N 37°27' E 025°20'0 0.0
2017-Sep-27 23:30N 37°27' E 025°20'0 0.0
2017-Sep-27 22:51N 37°27' E 025°20'0 0.0
2017-Sep-27 22:30N 37°27' E 025°20'0 0.0
2017-Sep-27 22:00N 37°27' E 025°20'0 0.0
2017-Sep-27 21:30N 37°27' E 025°20'0 0.0
2017-Sep-27 20:57N 37°27' E 025°20'0 0.0
2017-Sep-27 20:30N 37°27' E 025°20'0 0.0
2017-Sep-27 19:57N 37°27' E 025°20'0 0.0
2017-Sep-27 19:30N 37°27' E 025°20'0 0.0
2017-Sep-27 19:00N 37°27' E 025°20'0 0.0
2017-Sep-27 18:27N 37°27' E 025°20'0 0.0
2017-Sep-27 17:39N 37°27' E 025°20'0 0.0
2017-Sep-27 17:27N 37°27' E 025°20'0 0.0
2017-Sep-27 17:00N 37°27' E 025°20'0 0.0
2017-Sep-27 16:30N 37°27' E 025°20'0 0.0
2017-Sep-27 16:00N 37°27' E 025°20'0 0.0
2017-Sep-27 15:30N 37°27' E 025°20'0 0.0
2017-Sep-27 15:00N 37°27' E 025°20'0 0.0
2017-Sep-27 14:30N 37°27' E 025°20'0 0.0
2017-Sep-27 14:00N 37°27' E 025°20'0 0.0
2017-Sep-27 13:30N 37°27' E 025°20'0 0.0
2017-Sep-27 13:00N 37°27' E 025°20'0 0.0
2017-Sep-27 12:30N 37°27' E 025°20'0 0.0
2017-Sep-27 12:00N 37°27' E 025°20'0 0.0
2017-Sep-27 11:30N 37°27' E 025°20'0 0.0
2017-Sep-27 11:00N 37°27' E 025°20'0 0.0
2017-Sep-27 10:30N 37°27' E 025°20'0 0.0
2017-Sep-27 10:00N 37°27' E 025°20'0 0.0
2017-Sep-27 09:30N 37°27' E 025°20'0 0.0
2017-Sep-27 09:00N 37°27' E 025°20'0 0.0
2017-Sep-27 08:24N 37°27' E 025°20'0 0.0
2017-Sep-27 08:00N 37°27' E 025°20'0 0.0
2017-Sep-27 07:30N 37°27' E 025°20'0 0.0
2017-Sep-27 06:57N 37°27' E 025°20'0 0.0
2017-Sep-27 06:30N 37°27' E 025°20'0 0.0
2017-Sep-27 06:00N 37°27' E 025°20'0 0.0
2017-Sep-27 05:30N 37°27' E 025°20'0 0.0
2017-Sep-27 05:00N 37°27' E 025°20'0 0.0
2017-Sep-27 04:30N 37°27' E 025°20'0 0.0
2017-Sep-27 04:00N 37°27' E 025°20'0 0.0
2017-Sep-27 03:27N 37°27' E 025°20'0 0.0
2017-Sep-27 03:00N 37°27' E 025°20'0 0.0
2017-Sep-27 02:30N 37°27' E 025°20'0 0.0
2017-Sep-27 02:00N 37°27' E 025°20'0 0.0
2017-Sep-27 01:30N 37°27' E 025°20'0 0.0
2017-Sep-27 01:00N 37°27' E 025°20'0 0.0
2017-Sep-27 00:30N 37°27' E 025°20'0 0.0
2017-Sep-27 00:00N 37°27' E 025°20'0 0.0
2017-Sep-26 23:27N 37°27' E 025°20'0 0.0
2017-Sep-26 22:57N 37°27' E 025°20'0 0.0
2017-Sep-26 22:30N 37°27' E 025°20'0 0.0
2017-Sep-26 22:00N 37°27' E 025°20'0 0.0
2017-Sep-26 21:30N 37°27' E 025°20'0 0.0
2017-Sep-26 21:00N 37°27' E 025°20'0 0.0
2017-Sep-26 20:27N 37°27' E 025°20'0 0.0
2017-Sep-26 20:00N 37°27' E 025°20'0 0.0
2017-Sep-26 19:30N 37°27' E 025°20'0 0.0
2017-Sep-26 18:57N 37°27' E 025°20'0 0.0
2017-Sep-26 18:30N 37°27' E 025°20'0 0.0
2017-Sep-26 18:00N 37°27' E 025°20'0 0.0
2017-Sep-26 17:30N 37°27' E 025°20'0 0.0
2017-Sep-26 17:00N 37°27' E 025°20'0 0.0
2017-Sep-26 16:30N 37°27' E 025°20'0 0.0
2017-Sep-26 16:00N 37°27' E 025°20'0 0.0
2017-Sep-26 15:30N 37°27' E 025°20'0 0.0
2017-Sep-26 15:00N 37°27' E 025°20'0 0.0
2017-Sep-26 14:27N 37°27' E 025°20'0 0.0
2017-Sep-26 14:00N 37°27' E 025°20'0 0.0
2017-Sep-26 13:30N 37°27' E 025°20'0 0.0
2017-Sep-26 13:00N 37°27' E 025°20'0 0.0
2017-Sep-26 12:30N 37°27' E 025°20'0 0.0
2017-Sep-26 12:00N 37°27' E 025°20'0 0.0
2017-Sep-26 11:30N 37°27' E 025°20'0 0.0
2017-Sep-26 11:00N 37°27' E 025°20'0 0.0
2017-Sep-26 10:30N 37°27' E 025°20'0 0.0
2017-Sep-26 09:57N 37°27' E 025°20'0 0.0
2017-Sep-26 09:30N 37°27' E 025°20'0 0.0
2017-Sep-26 09:00N 37°27' E 025°20'0 0.0
2017-Sep-26 08:30N 37°27' E 025°20'0 0.0
2017-Sep-26 08:00N 37°27' E 025°20'0 0.0
2017-Sep-26 07:27N 37°27' E 025°20'0 0.0
2017-Sep-26 07:00N 37°27' E 025°20'0 0.0
2017-Sep-26 06:30N 37°27' E 025°20'0 0.0
2017-Sep-26 06:00N 37°27' E 025°20'0 0.0
2017-Sep-26 05:30N 37°27' E 025°20'0 0.0
2017-Sep-26 05:00N 37°27' E 025°20'0 0.0
2017-Sep-26 04:27N 37°27' E 025°20'0 0.0
2017-Sep-26 04:00N 37°27' E 025°20'0 0.0
2017-Sep-26 03:30N 37°27' E 025°20'0 0.0
2017-Sep-26 03:00N 37°27' E 025°20'0 0.0
2017-Sep-26 02:30N 37°27' E 025°20'0 0.0
2017-Sep-26 02:00N 37°27' E 025°20'0 0.0
2017-Sep-26 01:30N 37°27' E 025°20'0 0.0
2017-Sep-26 01:00N 37°27' E 025°20'0 0.0
2017-Sep-26 00:30N 37°27' E 025°20'0 0.0
2017-Sep-26 00:00N 37°27' E 025°20'0 0.0
2017-Sep-25 23:30N 37°27' E 025°20'0 0.0
2017-Sep-25 23:00N 37°27' E 025°20'0 0.0
2017-Sep-25 22:30N 37°27' E 025°20'0 0.0
2017-Sep-25 22:00N 37°27' E 025°20'0 0.0
2017-Sep-25 21:30N 37°27' E 025°20'0 0.0
2017-Sep-25 21:00N 37°27' E 025°20'0 0.0
2017-Sep-25 20:27N 37°27' E 025°20'0 0.0
2017-Sep-25 20:00N 37°27' E 025°20'0 0.0
2017-Sep-25 19:30N 37°27' E 025°20'0 0.0
2017-Sep-25 19:00N 37°27' E 025°20'0 0.0
2017-Sep-25 18:30N 37°27' E 025°20'0 0.0
2017-Sep-25 18:00N 37°27' E 025°20'0 0.0
2017-Sep-25 17:30N 37°27' E 025°20'0 0.0
2017-Sep-25 17:00N 37°27' E 025°20'0 0.0
2017-Sep-25 16:30N 37°27' E 025°20'0 0.0
2017-Sep-25 16:00N 37°27' E 025°20'0 0.0
2017-Sep-25 15:30N 37°27' E 025°20'0 0.0
2017-Sep-25 15:00N 37°27' E 025°20'0 0.0
2017-Sep-25 14:30N 37°27' E 025°20'0 0.0
2017-Sep-25 14:00N 37°27' E 025°20'0 0.0
2017-Sep-25 13:30N 37°27' E 025°20'0 0.0
2017-Sep-25 13:00N 37°27' E 025°20'0 0.0
2017-Sep-25 12:30N 37°27' E 025°20'0 0.0
2017-Sep-25 12:00N 37°27' E 025°20'0 0.0
2017-Sep-25 11:27N 37°27' E 025°20'0 0.0
2017-Sep-25 11:00N 37°27' E 025°20'0 0.0
2017-Sep-25 10:30N 37°27' E 025°20'0 0.0
2017-Sep-25 09:57N 37°27' E 025°20'0 0.0
2017-Sep-25 09:30N 37°27' E 025°20'0 0.0
2017-Sep-25 09:00N 37°27' E 025°20'0 0.0
2017-Sep-25 08:30N 37°27' E 025°20'0 0.0
2017-Sep-25 07:57N 37°27' E 025°20'0 0.0
2017-Sep-25 07:30N 37°27' E 025°20'0 0.0
2017-Sep-25 07:00N 37°27' E 025°20'0 0.0
2017-Sep-25 06:30N 37°27' E 025°20'0 0.0
2017-Sep-25 06:00N 37°27' E 025°20'0 0.0
2017-Sep-25 05:30N 37°27' E 025°20'0 0.0
2017-Sep-25 05:00N 37°27' E 025°20'0 0.0
2017-Sep-25 04:30N 37°27' E 025°20'0 0.0
2017-Sep-25 03:57N 37°27' E 025°20'0 0.0
2017-Sep-25 03:27N 37°27' E 025°20'0 0.0
2017-Sep-25 02:57N 37°27' E 025°20'0 0.0
2017-Sep-25 02:30N 37°27' E 025°20'0 0.0
2017-Sep-25 02:00N 37°27' E 025°20'0 0.0
2017-Sep-25 01:30N 37°27' E 025°20'0 0.0
2017-Sep-25 01:00N 37°27' E 025°20'0 0.0
2017-Sep-25 00:30N 37°27' E 025°20'0 0.0
2017-Sep-25 00:00N 37°27' E 025°20'0 0.0
2017-Sep-24 23:30N 37°27' E 025°20'0 0.0
2017-Sep-24 23:00N 37°27' E 025°20'0 0.0
2017-Sep-24 22:27N 37°27' E 025°20'0 0.0
2017-Sep-24 22:00N 37°27' E 025°20'0 0.0
2017-Sep-24 21:30N 37°27' E 025°20'0 0.0
2017-Sep-24 21:00N 37°27' E 025°20'0 0.0
2017-Sep-24 20:30N 37°27' E 025°20'  
Track history (hours):
 
Tides and Currents Weather Stations Pressure Air Temp Water Temp Dewpoint Dewpoint Depression Visibility Wind Speed Wind Dir Waves Ship Positions

S

Last reported at 2017-Oct-04 20:23 UTC. Time now 2018-Feb-21 07:19 UTC.
Position N 38°47' E 008°43'.
Warning: this ship's position is months out of date.

Length 53 m; draft 2.1 m.

Type: Pleasure craft. MMSI: 248283000.

Date/timePositionNaut miles runAvg speedWind from/ knotsBaromVisibWave heightAir tempDewpointWater temp
2017-Oct-04 20:23N 38°47' E 008°43'21417.7
2017-Oct-04 08:17N 38°27' E 013°16'517.6
2017-Oct-04 08:00N 38°27' E 013°22'917.6
2017-Oct-04 07:29N 38°26' E 013°33'817.5
2017-Oct-04 07:00N 38°25' E 013°44'917.3
2017-Oct-04 06:30N 38°24' E 013°55'5217.5
2017-Oct-04 03:31N 38°20' E 015°02'516.6
2017-Oct-04 03:11N 38°21' E 015°08'518.0
2017-Oct-04 02:54N 38°21' E 015°15'717.7
2017-Oct-04 02:29N 38°21' E 015°24'817.4
2017-Oct-04 02:00N 38°21' E 015°35'713.5
2017-Oct-04 01:30N 38°15' E 015°41'713.7
2017-Oct-04 01:01N 38°09' E 015°36'816.8
2017-Oct-04 00:30N 38°01' E 015°36'917.1
2017-Oct-04 00:00N 37°54' E 015°42'916.8
2017-Oct-03 23:29N 37°53' E 015°53'3417.2
2017-Oct-03 21:31N 38°09' E 016°31'  
2017-Oct-01 13:02N 37°55' E 023°00'0 6.3
2017-Oct-01 13:00N 37°55' E 023°01'3 6.5
2017-Oct-01 12:30N 37°54' E 023°04'714.4
2017-Oct-01 12:00N 37°52' E 023°13'714.7
2017-Oct-01 11:30N 37°51' E 023°22'714.6
2017-Oct-01 11:00N 37°50' E 023°32'713.1
2017-Oct-01 10:30N 37°49' E 023°40'714.2
2017-Oct-01 10:00N 37°43' E 023°44'5012.0
2017-Oct-01 05:51N 37°28' E 024°44'1811.2
2017-Oct-01 04:14N 37°26' E 025°07'313.2
2017-Oct-01 04:01N 37°24' E 025°09'612.5
2017-Oct-01 03:30N 37°22' E 025°17'4 8.2
2017-Oct-01 03:01N 37°25' E 025°20'0 0.0
2017-Sep-30 01:59N 37°25' E 025°20'0 0.0
2017-Sep-30 01:26N 37°25' E 025°20'0 0.0
2017-Sep-30 00:56N 37°25' E 025°20'0 0.0
2017-Sep-30 00:29N 37°25' E 025°20'0 0.1
2017-Sep-29 23:59N 37°25' E 025°20'0 0.0
2017-Sep-29 23:29N 37°25' E 025°20'0 0.0
2017-Sep-29 22:59N 37°25' E 025°20'0 0.0
2017-Sep-29 22:29N 37°25' E 025°20'0 0.0
2017-Sep-29 21:59N 37°25' E 025°20'0 0.0
2017-Sep-29 21:29N 37°25' E 025°20'0 0.0
2017-Sep-29 20:59N 37°25' E 025°20'0 0.0
2017-Sep-29 20:29N 37°25' E 025°20'0 0.0
2017-Sep-29 19:53N 37°25' E 025°20'0 0.0
2017-Sep-29 19:29N 37°25' E 025°20'0 0.0
2017-Sep-29 18:59N 37°25' E 025°20'0 0.0
2017-Sep-29 18:29N 37°25' E 025°20'0 0.0
2017-Sep-29 17:59N 37°25' E 025°20'0 0.0
2017-Sep-29 17:29N 37°25' E 025°20'0 0.0
2017-Sep-29 16:59N 37°25' E 025°20'0 0.0
2017-Sep-29 16:29N 37°25' E 025°20'0 0.0
2017-Sep-29 15:59N 37°25' E 025°20'0 0.0
2017-Sep-29 15:29N 37°25' E 025°20'0 0.2
2017-Sep-29 14:56N 37°25' E 025°20'0 0.0
2017-Sep-29 14:29N 37°25' E 025°20'0 0.1
2017-Sep-29 13:59N 37°25' E 025°20'0 0.0
2017-Sep-29 13:29N 37°25' E 025°20'0 0.1
2017-Sep-29 12:59N 37°25' E 025°20'0 0.1
2017-Sep-29 12:29N 37°25' E 025°20'0 0.0
2017-Sep-29 11:59N 37°25' E 025°20'0 0.1
2017-Sep-29 11:29N 37°25' E 025°20'1 2.8
2017-Sep-29 11:00N 37°24' E 025°22'3 5.2
2017-Sep-29 10:30N 37°26' E 025°25'1 2.7
2017-Sep-29 10:00N 37°24' E 025°24'510.9
2017-Sep-29 09:30N 37°26' E 025°17'2 4.0
2017-Sep-29 09:00N 37°27' E 025°20'0 0.1
2017-Sep-29 08:30N 37°27' E 025°20'0 0.0
2017-Sep-29 08:01N 37°27' E 025°20'0 0.0
2017-Sep-29 07:30N 37°27' E 025°20'0 0.0
2017-Sep-29 06:57N 37°27' E 025°20'0 0.0
2017-Sep-29 06:30N 37°27' E 025°20'0 0.0
2017-Sep-29 06:00N 37°27' E 025°20'0 0.0
2017-Sep-29 05:30N 37°27' E 025°20'0 0.0
2017-Sep-29 05:01N 37°27' E 025°20'0 0.0
2017-Sep-29 04:30N 37°27' E 025°20'0 0.0
2017-Sep-29 04:00N 37°27' E 025°20'0 0.0
2017-Sep-29 03:30N 37°27' E 025°20'0 0.0
2017-Sep-29 03:00N 37°27' E 025°20'0 0.0
2017-Sep-29 01:42N 37°27' E 025°20'0 0.0
2017-Sep-29 00:09N 37°27' E 025°20'0 0.0
2017-Sep-28 23:09N 37°27' E 025°20'0 0.0
2017-Sep-28 22:54N 37°27' E 025°20'0 0.0
2017-Sep-28 22:30N 37°27' E 025°20'0 0.0
2017-Sep-28 22:00N 37°27' E 025°20'0 0.0
2017-Sep-28 21:30N 37°27' E 025°20'0 0.0
2017-Sep-28 21:00N 37°27' E 025°20'0 0.0
2017-Sep-28 20:30N 37°27' E 025°20'0 0.0
2017-Sep-28 20:00N 37°27' E 025°20'0 0.0
2017-Sep-28 19:30N 37°27' E 025°20'0 0.0
2017-Sep-28 19:00N 37°27' E 025°20'0 0.0
2017-Sep-28 18:27N 37°27' E 025°20'0 0.0
2017-Sep-28 18:00N 37°27' E 025°20'0 0.0
2017-Sep-28 17:30N 37°27' E 025°20'0 0.0
2017-Sep-28 17:00N 37°27' E 025°20'0 0.0
2017-Sep-28 16:30N 37°27' E 025°20'0 0.0
2017-Sep-28 16:00N 37°27' E 025°20'0 0.0
2017-Sep-28 15:30N 37°27' E 025°20'0 0.0
2017-Sep-28 15:00N 37°27' E 025°20'0 0.0
2017-Sep-28 14:27N 37°27' E 025°20'0 0.0
2017-Sep-28 13:57N 37°27' E 025°20'0 0.0
2017-Sep-28 13:30N 37°27' E 025°20'0 0.0
2017-Sep-28 13:00N 37°27' E 025°20'0 0.0
2017-Sep-28 12:30N 37°27' E 025°20'0 0.0
2017-Sep-28 12:00N 37°27' E 025°20'0 0.0
2017-Sep-28 11:30N 37°27' E 025°20'0 0.0
2017-Sep-28 11:00N 37°27' E 025°20'0 0.0
2017-Sep-28 10:30N 37°27' E 025°20'0 0.0
2017-Sep-28 10:00N 37°27' E 025°20'0 0.0
2017-Sep-28 09:30N 37°27' E 025°20'0 0.0
2017-Sep-28 08:57N 37°27' E 025°20'0 0.0
2017-Sep-28 08:30N 37°27' E 025°20'0 0.0
2017-Sep-28 08:00N 37°27' E 025°20'0 0.0
2017-Sep-28 07:30N 37°27' E 025°20'0 0.0
2017-Sep-28 07:00N 37°27' E 025°20'0 0.0
2017-Sep-28 06:30N 37°27' E 025°20'0 0.0
2017-Sep-28 06:00N 37°27' E 025°20'0 0.0
2017-Sep-28 05:30N 37°27' E 025°20'0 0.0
2017-Sep-28 05:00N 37°27' E 025°20'0 0.0
2017-Sep-28 04:30N 37°27' E 025°20'0 0.0
2017-Sep-28 03:57N 37°27' E 025°20'0 0.0
2017-Sep-28 03:30N 37°27' E 025°20'0 0.0
2017-Sep-28 03:00N 37°27' E 025°20'0 0.0
2017-Sep-28 02:27N 37°27' E 025°20'0 0.0
2017-Sep-28 01:57N 37°27' E 025°20'0 0.0
2017-Sep-28 01:30N 37°27' E 025°20'0 0.0
2017-Sep-28 01:00N 37°27' E 025°20'0 0.0
2017-Sep-28 00:30N 37°27' E 025°20'0 0.0
2017-Sep-28 00:00N 37°27' E 025°20'0 0.0
2017-Sep-27 23:30N 37°27' E 025°20'0 0.0
2017-Sep-27 22:51N 37°27' E 025°20'0 0.0
2017-Sep-27 22:30N 37°27' E 025°20'0 0.0
2017-Sep-27 22:00N 37°27' E 025°20'0 0.0
2017-Sep-27 21:30N 37°27' E 025°20'0 0.0
2017-Sep-27 20:57N 37°27' E 025°20'0 0.0
2017-Sep-27 20:30N 37°27' E 025°20'0 0.0
2017-Sep-27 19:57N 37°27' E 025°20'0 0.0
2017-Sep-27 19:30N 37°27' E 025°20'0 0.0
2017-Sep-27 19:00N 37°27' E 025°20'0 0.0
2017-Sep-27 18:27N 37°27' E 025°20'0 0.0
2017-Sep-27 17:39N 37°27' E 025°20'0 0.0
2017-Sep-27 17:27N 37°27' E 025°20'0 0.0
2017-Sep-27 17:00N 37°27' E 025°20'0 0.0
2017-Sep-27 16:30N 37°27' E 025°20'0 0.0
2017-Sep-27 16:00N 37°27' E 025°20'0 0.0
2017-Sep-27 15:30N 37°27' E 025°20'0 0.0
2017-Sep-27 15:00N 37°27' E 025°20'0 0.0
2017-Sep-27 14:30N 37°27' E 025°20'0 0.0
2017-Sep-27 14:00N 37°27' E 025°20'0 0.0
2017-Sep-27 13:30N 37°27' E 025°20'0 0.0
2017-Sep-27 13:00N 37°27' E 025°20'0 0.0
2017-Sep-27 12:30N 37°27' E 025°20'0 0.0
2017-Sep-27 12:00N 37°27' E 025°20'0 0.0
2017-Sep-27 11:30N 37°27' E 025°20'0 0.0
2017-Sep-27 11:00N 37°27' E 025°20'0 0.0
2017-Sep-27 10:30N 37°27' E 025°20'0 0.0
2017-Sep-27 10:00N 37°27' E 025°20'0 0.0
2017-Sep-27 09:30N 37°27' E 025°20'0 0.0
2017-Sep-27 09:00N 37°27' E 025°20'0 0.0
2017-Sep-27 08:24N 37°27' E 025°20'0 0.0
2017-Sep-27 08:00N 37°27' E 025°20'0 0.0
2017-Sep-27 07:30N 37°27' E 025°20'0 0.0
2017-Sep-27 06:57N 37°27' E 025°20'0 0.0
2017-Sep-27 06:30N 37°27' E 025°20'0 0.0
2017-Sep-27 06:00N 37°27' E 025°20'0 0.0
2017-Sep-27 05:30N 37°27' E 025°20'0 0.0
2017-Sep-27 05:00N 37°27' E 025°20'0 0.0
2017-Sep-27 04:30N 37°27' E 025°20'0 0.0
2017-Sep-27 04:00N 37°27' E 025°20'0 0.0
2017-Sep-27 03:27N 37°27' E 025°20'0 0.0
2017-Sep-27 03:00N 37°27' E 025°20'0 0.0
2017-Sep-27 02:30N 37°27' E 025°20'0 0.0
2017-Sep-27 02:00N 37°27' E 025°20'0 0.0
2017-Sep-27 01:30N 37°27' E 025°20'0 0.0
2017-Sep-27 01:00N 37°27' E 025°20'0 0.0
2017-Sep-27 00:30N 37°27' E 025°20'0 0.0
2017-Sep-27 00:00N 37°27' E 025°20'0 0.0
2017-Sep-26 23:27N 37°27' E 025°20'0 0.0
2017-Sep-26 22:57N 37°27' E 025°20'0 0.0
2017-Sep-26 22:30N 37°27' E 025°20'0 0.0
2017-Sep-26 22:00N 37°27' E 025°20'0 0.0
2017-Sep-26 21:30N 37°27' E 025°20'0 0.0
2017-Sep-26 21:00N 37°27' E 025°20'0 0.0
2017-Sep-26 20:27N 37°27' E 025°20'0 0.0
2017-Sep-26 20:00N 37°27' E 025°20'0 0.0
2017-Sep-26 19:30N 37°27' E 025°20'0 0.0
2017-Sep-26 18:57N 37°27' E 025°20'0 0.0
2017-Sep-26 18:30N 37°27' E 025°20'0 0.0
2017-Sep-26 18:00N 37°27' E 025°20'0 0.0
2017-Sep-26 17:30N 37°27' E 025°20'0 0.0
2017-Sep-26 17:00N 37°27' E 025°20'0 0.0
2017-Sep-26 16:30N 37°27' E 025°20'0 0.0
2017-Sep-26 16:00N 37°27' E 025°20'0 0.0
2017-Sep-26 15:30N 37°27' E 025°20'0 0.0
2017-Sep-26 15:00N 37°27' E 025°20'0 0.0
2017-Sep-26 14:27N 37°27' E 025°20'0 0.0
2017-Sep-26 14:00N 37°27' E 025°20'0 0.0
2017-Sep-26 13:30N 37°27' E 025°20'0 0.0
2017-Sep-26 13:00N 37°27' E 025°20'0 0.0
2017-Sep-26 12:30N 37°27' E 025°20'0 0.0
2017-Sep-26 12:00N 37°27' E 025°20'0 0.0
2017-Sep-26 11:30N 37°27' E 025°20'0 0.0
2017-Sep-26 11:00N 37°27' E 025°20'0 0.0
2017-Sep-26 10:30N 37°27' E 025°20'0 0.0
2017-Sep-26 09:57N 37°27' E 025°20'0 0.0
2017-Sep-26 09:30N 37°27' E 025°20'0 0.0
2017-Sep-26 09:00N 37°27' E 025°20'0 0.0
2017-Sep-26 08:30N 37°27' E 025°20'0 0.0
2017-Sep-26 08:00N 37°27' E 025°20'0 0.0
2017-Sep-26 07:27N 37°27' E 025°20'0 0.0
2017-Sep-26 07:00N 37°27' E 025°20'0 0.0
2017-Sep-26 06:30N 37°27' E 025°20'0 0.0
2017-Sep-26 06:00N 37°27' E 025°20'0 0.0
2017-Sep-26 05:30N 37°27' E 025°20'0 0.0
2017-Sep-26 05:00N 37°27' E 025°20'0 0.0
2017-Sep-26 04:27N 37°27' E 025°20'0 0.0
2017-Sep-26 04:00N 37°27' E 025°20'0 0.0
2017-Sep-26 03:30N 37°27' E 025°20'0 0.0
2017-Sep-26 03:00N 37°27' E 025°20'0 0.0
2017-Sep-26 02:30N 37°27' E 025°20'0 0.0
2017-Sep-26 02:00N 37°27' E 025°20'0 0.0
2017-Sep-26 01:30N 37°27' E 025°20'0 0.0
2017-Sep-26 01:00N 37°27' E 025°20'0 0.0
2017-Sep-26 00:30N 37°27' E 025°20'0 0.0
2017-Sep-26 00:00N 37°27' E 025°20'0 0.0
2017-Sep-25 23:30N 37°27' E 025°20'0 0.0
2017-Sep-25 23:00N 37°27' E 025°20'0 0.0
2017-Sep-25 22:30N 37°27' E 025°20'0 0.0
2017-Sep-25 22:00N 37°27' E 025°20'0 0.0
2017-Sep-25 21:30N 37°27' E 025°20'0 0.0
2017-Sep-25 21:00N 37°27' E 025°20'0 0.0
2017-Sep-25 20:27N 37°27' E 025°20'0 0.0
2017-Sep-25 20:00N 37°27' E 025°20'0 0.0
2017-Sep-25 19:30N 37°27' E 025°20'0 0.0
2017-Sep-25 19:00N 37°27' E 025°20'0 0.0
2017-Sep-25 18:30N 37°27' E 025°20'0 0.0
2017-Sep-25 18:00N 37°27' E 025°20'0 0.0
2017-Sep-25 17:30N 37°27' E 025°20'0 0.0
2017-Sep-25 17:00N 37°27' E 025°20'0 0.0
2017-Sep-25 16:30N 37°27' E 025°20'0 0.0
2017-Sep-25 16:00N 37°27' E 025°20'0 0.0
2017-Sep-25 15:30N 37°27' E 025°20'0 0.0
2017-Sep-25 15:00N 37°27' E 025°20'0 0.0
2017-Sep-25 14:30N 37°27' E 025°20'0 0.0
2017-Sep-25 14:00N 37°27' E 025°20'0 0.0
2017-Sep-25 13:30N 37°27' E 025°20'0 0.0
2017-Sep-25 13:00N 37°27' E 025°20'0 0.0
2017-Sep-25 12:30N 37°27' E 025°20'0 0.0
2017-Sep-25 12:00N 37°27' E 025°20'0 0.0
2017-Sep-25 11:27N 37°27' E 025°20'0 0.0
2017-Sep-25 11:00N 37°27' E 025°20'0 0.0
2017-Sep-25 10:30N 37°27' E 025°20'0 0.0
2017-Sep-25 09:57N 37°27' E 025°20'0 0.0
2017-Sep-25 09:30N 37°27' E 025°20'0 0.0
2017-Sep-25 09:00N 37°27' E 025°20'0 0.0
2017-Sep-25 08:30N 37°27' E 025°20'0 0.0
2017-Sep-25 07:57N 37°27' E 025°20'0 0.0
2017-Sep-25 07:30N 37°27' E 025°20'0 0.0
2017-Sep-25 07:00N 37°27' E 025°20'0 0.0
2017-Sep-25 06:30N 37°27' E 025°20'0 0.0
2017-Sep-25 06:00N 37°27' E 025°20'0 0.0
2017-Sep-25 05:30N 37°27' E 025°20'0 0.0
2017-Sep-25 05:00N 37°27' E 025°20'0 0.0
2017-Sep-25 04:30N 37°27' E 025°20'0 0.0
2017-Sep-25 03:57N 37°27' E 025°20'0 0.0
2017-Sep-25 03:27N 37°27' E 025°20'0 0.0
2017-Sep-25 02:57N 37°27' E 025°20'0 0.0
2017-Sep-25 02:30N 37°27' E 025°20'0 0.0
2017-Sep-25 02:00N 37°27' E 025°20'0 0.0
2017-Sep-25 01:30N 37°27' E 025°20'0 0.0
2017-Sep-25 01:00N 37°27' E 025°20'0 0.0
2017-Sep-25 00:30N 37°27' E 025°20'0 0.0
2017-Sep-25 00:00N 37°27' E 025°20'0 0.0
2017-Sep-24 23:30N 37°27' E 025°20'0 0.0
2017-Sep-24 23:00N 37°27' E 025°20'0 0.0
2017-Sep-24 22:27N 37°27' E 025°20'0 0.0
2017-Sep-24 22:00N 37°27' E 025°20'0 0.0
2017-Sep-24 21:30N 37°27' E 025°20'0 0.0
2017-Sep-24 21:00N 37°27' E 025°20'0 0.0
2017-Sep-24 20:30N 37°27' E 025°20'  

Dump ship's entire track history